createdAt,value
2023-05-16T00:01:39.427Z,100.00
2023-05-16T00:04:26.553Z,100.00
2023-05-16T00:07:12.981Z,100.00
2023-05-16T00:09:59.310Z,100.00
2023-05-16T00:12:47.189Z,100.00
2023-05-16T00:15:33.714Z,100.00
2023-05-16T00:18:19.882Z,100.00
2023-05-16T00:21:07.115Z,100.00
2023-05-16T00:23:53.359Z,100.00
2023-05-16T00:26:39.884Z,100.00
2023-05-16T00:29:26.427Z,100.00
2023-05-16T00:32:12.786Z,100.00
2023-05-16T00:34:59.716Z,100.00
2023-05-16T00:37:48.956Z,100.00
2023-05-16T00:40:35.476Z,100.00
2023-05-16T00:43:21.943Z,100.00
2023-05-16T00:46:10.491Z,100.00
2023-05-16T00:48:57.062Z,100.00
2023-05-16T00:51:43.167Z,100.00
2023-05-16T00:54:30.687Z,100.00
2023-05-16T00:57:17.201Z,100.00
2023-05-16T01:00:10.580Z,100.00
2023-05-16T01:02:57.078Z,100.00
2023-05-16T01:05:44.135Z,100.00
2023-05-16T01:08:32.969Z,100.00
2023-05-16T01:11:41.351Z,100.00
2023-05-16T01:14:33.624Z,100.00
2023-05-16T01:17:32.532Z,100.00
2023-05-16T01:20:37.420Z,100.00
2023-05-16T01:23:41.844Z,100.00
2023-05-16T01:26:30.042Z,100.00
2023-05-16T01:29:16.785Z,100.00
2023-05-16T01:32:03.209Z,100.00
2023-05-16T01:34:52.229Z,100.00
2023-05-16T01:37:54.564Z,100.00
2023-05-16T01:40:53.488Z,100.00
2023-05-16T01:43:47.005Z,100.00
2023-05-16T01:46:38.931Z,100.00
2023-05-16T01:49:33.277Z,100.00
2023-05-16T01:52:27.634Z,100.00
2023-05-16T01:55:32.129Z,100.00
2023-05-16T01:58:26.112Z,100.00
2023-05-16T02:01:13.559Z,100.00
2023-05-16T02:04:00.016Z,100.00
2023-05-16T02:06:46.877Z,100.00
2023-05-16T02:09:36.481Z,100.00
2023-05-16T02:12:22.849Z,100.00
2023-05-16T02:15:10.100Z,100.00
2023-05-16T02:17:56.325Z,100.00
2023-05-16T02:20:42.672Z,100.00
2023-05-16T02:23:29.599Z,100.00
2023-05-16T02:26:16.040Z,100.00
2023-05-16T02:29:02.424Z,100.00
2023-05-16T02:31:48.838Z,100.00
2023-05-16T02:34:34.935Z,100.00
2023-05-16T02:37:21.356Z,100.00
2023-05-16T02:40:10.786Z,100.00
2023-05-16T02:42:57.185Z,100.00
2023-05-16T02:45:44.440Z,100.00
2023-05-16T02:48:30.767Z,100.00
2023-05-16T02:51:22.952Z,100.00
2023-05-16T02:54:09.979Z,100.00
2023-05-16T02:56:56.343Z,100.00
2023-05-16T02:59:42.887Z,100.00
2023-05-16T03:02:29.409Z,100.00
2023-05-16T03:05:16.973Z,100.00
2023-05-16T03:08:03.101Z,100.00
2023-05-16T03:10:49.744Z,100.00
2023-05-16T03:13:35.985Z,100.00
2023-05-16T03:16:22.206Z,100.00
2023-05-16T03:19:09.216Z,100.00
2023-05-16T03:21:55.561Z,100.00
2023-05-16T03:24:42.041Z,100.00
2023-05-16T03:27:31.224Z,100.00
2023-05-16T03:30:19.277Z,100.00
2023-05-16T03:33:05.772Z,100.00
2023-05-16T03:35:52.716Z,100.00
2023-05-16T03:38:38.946Z,100.00
2023-05-16T03:41:26.454Z,100.00
2023-05-16T03:44:12.957Z,100.00
2023-05-16T03:46:59.326Z,100.00
2023-05-16T03:49:45.814Z,100.00
2023-05-16T03:52:32.315Z,100.00
2023-05-16T03:55:18.598Z,100.00
2023-05-16T03:58:04.967Z,100.00
2023-05-16T04:00:51.257Z,100.00
2023-05-16T04:03:38.519Z,100.00
2023-05-16T04:06:24.968Z,100.00
2023-05-16T04:09:11.930Z,100.00
2023-05-16T04:12:01.729Z,100.00
2023-05-16T04:14:48.069Z,100.00
2023-05-16T04:17:34.787Z,100.00
2023-05-16T04:20:21.365Z,100.00
2023-05-16T04:23:07.559Z,100.00
2023-05-16T04:25:55.169Z,100.00
2023-05-16T04:28:41.623Z,100.00
2023-05-16T04:31:27.849Z,100.00
2023-05-16T04:34:15.875Z,100.00
2023-05-16T04:37:02.488Z,100.00
2023-05-16T04:39:49.126Z,100.00
2023-05-16T04:42:35.541Z,100.00
2023-05-16T04:45:21.837Z,100.00
2023-05-16T04:48:08.513Z,100.00
2023-05-16T04:50:55.559Z,100.00
2023-05-16T04:53:41.954Z,100.00
2023-05-16T04:56:28.357Z,100.00
2023-05-16T04:59:15.132Z,100.00
2023-05-16T05:02:01.722Z,100.00
2023-05-16T05:04:48.068Z,100.00
2023-05-16T05:07:34.819Z,100.00
2023-05-16T05:10:21.609Z,100.00
2023-05-16T05:13:08.162Z,100.00
2023-05-16T05:15:54.661Z,100.00
2023-05-16T05:18:41.157Z,100.00
2023-05-16T05:21:27.721Z,100.00
2023-05-16T05:24:14.303Z,100.00
2023-05-16T05:27:00.618Z,100.00
2023-05-16T05:29:46.880Z,100.00
2023-05-16T05:32:33.251Z,100.00
2023-05-16T05:35:19.777Z,100.00
2023-05-16T05:38:06.199Z,100.00
2023-05-16T05:40:52.937Z,100.00
2023-05-16T05:43:39.350Z,100.00
2023-05-16T05:46:26.205Z,100.00
2023-05-16T05:49:13.033Z,100.00
2023-05-16T05:51:59.690Z,100.00
2023-05-16T05:54:45.906Z,100.00
2023-05-16T05:57:32.419Z,100.00
2023-05-16T06:00:18.880Z,100.00
2023-05-16T06:03:05.313Z,100.00
2023-05-16T06:05:52.124Z,100.00
2023-05-16T06:08:38.402Z,100.00
2023-05-16T06:11:25.419Z,100.00
2023-05-16T06:14:12.002Z,100.00
2023-05-16T06:16:58.135Z,100.00
2023-05-16T06:19:44.425Z,100.00
2023-05-16T06:22:31.202Z,100.00
2023-05-16T06:25:17.559Z,100.00
2023-05-16T06:28:03.822Z,100.00
2023-05-16T06:30:51.863Z,100.00
2023-05-16T06:33:38.401Z,100.00
2023-05-16T06:36:24.831Z,100.00
2023-05-16T06:39:11.076Z,100.00
2023-05-16T06:41:58.468Z,100.00
2023-05-16T06:44:44.773Z,100.00
2023-05-16T06:47:31.172Z,100.00
2023-05-16T06:50:17.502Z,100.00
2023-05-16T06:53:05.048Z,100.00
2023-05-16T06:55:51.567Z,100.00
2023-05-16T06:58:38.224Z,100.00
2023-05-16T07:01:24.781Z,100.00
2023-05-16T07:04:11.444Z,100.00
2023-05-16T07:06:57.584Z,100.00
2023-05-16T07:09:44.377Z,100.00
2023-05-16T07:12:31.318Z,100.00
2023-05-16T07:15:17.623Z,100.00
2023-05-16T07:18:04.081Z,100.00
2023-05-16T07:20:51.036Z,100.00
2023-05-16T07:23:40.169Z,100.00
2023-05-16T07:26:26.750Z,100.00
2023-05-16T07:29:13.082Z,100.00
2023-05-16T07:31:59.628Z,100.00
2023-05-16T07:34:46.136Z,100.00
2023-05-16T07:37:32.363Z,100.00
2023-05-16T07:40:20.872Z,100.00
2023-05-16T07:43:07.062Z,100.00
2023-05-16T07:45:53.753Z,100.00
2023-05-16T07:48:40.415Z,100.00
2023-05-16T07:51:27.024Z,100.00
2023-05-16T07:54:13.558Z,100.00
2023-05-16T07:57:00.306Z,100.00
2023-05-16T07:59:47.028Z,100.00
2023-05-16T08:02:34.558Z,100.00
2023-05-16T08:05:21.515Z,100.00
2023-05-16T08:08:08.060Z,100.00
2023-05-16T08:10:54.641Z,100.00
2023-05-16T08:13:41.302Z,100.00
2023-05-16T08:16:27.880Z,100.00
2023-05-16T08:19:14.642Z,100.00
2023-05-16T08:22:01.842Z,100.00
2023-05-16T08:24:48.138Z,100.00
2023-05-16T08:27:34.514Z,100.00
2023-05-16T08:30:21.014Z,100.00
2023-05-16T08:33:07.362Z,100.00
2023-05-16T08:35:54.076Z,100.00
2023-05-16T08:38:40.818Z,100.00
2023-05-16T08:41:27.114Z,100.00
2023-05-16T08:44:21.088Z,100.00
2023-05-16T08:47:18.918Z,100.00
2023-05-16T08:50:09.170Z,100.00
2023-05-16T08:52:55.862Z,100.00
2023-05-16T08:55:44.235Z,100.00
2023-05-16T08:58:30.756Z,100.00
2023-05-16T09:01:18.451Z,100.00
2023-05-16T09:04:08.463Z,100.00
2023-05-16T09:06:55.092Z,100.00
2023-05-16T09:09:42.673Z,100.00
2023-05-16T09:12:28.973Z,100.00
2023-05-16T09:15:19.985Z,100.00
2023-05-16T09:18:12.688Z,100.00
2023-05-16T09:21:00.114Z,100.00
2023-05-16T09:23:49.508Z,100.00
2023-05-16T09:26:38.079Z,100.00
2023-05-16T09:29:24.405Z,100.00
2023-05-16T09:32:14.101Z,100.00
2023-05-16T09:35:00.536Z,100.00
2023-05-16T09:37:53.051Z,100.00
2023-05-16T09:40:41.961Z,100.00
2023-05-16T09:43:28.524Z,100.00
2023-05-16T09:46:15.613Z,100.00
2023-05-16T09:49:02.946Z,100.00
2023-05-16T09:51:49.721Z,100.00
2023-05-16T09:54:36.378Z,100.00
2023-05-16T09:57:23.616Z,100.00
2023-05-16T10:00:13.473Z,100.00
2023-05-16T10:03:03.492Z,100.00
2023-05-16T10:05:53.031Z,100.00
2023-05-16T10:08:43.202Z,100.00
2023-05-16T10:11:30.386Z,100.00
2023-05-16T10:14:18.990Z,100.00
2023-05-16T10:17:07.710Z,100.00
2023-05-16T10:19:54.287Z,100.00
2023-05-16T10:22:43.716Z,100.00
2023-05-16T10:25:39.055Z,99.85
2023-05-16T10:28:26.236Z,100.00
2023-05-16T10:31:13.269Z,100.00
2023-05-16T10:34:00.281Z,100.00
2023-05-16T10:36:47.636Z,100.00
2023-05-16T10:39:34.772Z,100.00
2023-05-16T10:42:24.009Z,100.00
2023-05-16T10:45:20.393Z,100.00
2023-05-16T10:48:08.888Z,100.00
2023-05-16T10:50:55.560Z,100.00
2023-05-16T10:53:41.829Z,100.00
2023-05-16T10:56:28.721Z,100.00
2023-05-16T10:59:26.488Z,100.00
2023-05-16T11:02:24.067Z,100.00
2023-05-16T11:05:17.938Z,100.00
2023-05-16T11:08:06.553Z,100.00
2023-05-16T11:11:31.706Z,100.00
2023-05-16T11:14:21.543Z,100.00
2023-05-16T11:17:08.151Z,100.00
2023-05-16T11:20:01.378Z,100.00
2023-05-16T11:22:47.755Z,100.00
2023-05-16T11:25:43.721Z,97.66
2023-05-16T11:28:30.164Z,98.16
2023-05-16T11:31:18.623Z,96.95
2023-05-16T11:34:05.877Z,96.48
2023-05-16T11:36:52.617Z,95.27
2023-05-16T11:39:39.230Z,94.76
2023-05-16T11:42:29.781Z,96.12
2023-05-16T11:45:18.220Z,93.19
2023-05-16T11:48:05.147Z,92.66
2023-05-16T11:50:53.614Z,90.03
2023-05-16T11:53:40.277Z,90.03
2023-05-16T11:56:27.506Z,92.64
2023-05-16T11:59:14.095Z,92.83
2023-05-16T12:02:04.578Z,93.16
2023-05-16T12:04:51.118Z,91.74
2023-05-16T12:07:38.176Z,92.69
2023-05-16T12:10:24.932Z,95.31
2023-05-16T12:13:11.921Z,95.77
2023-05-16T12:15:58.889Z,99.04
2023-05-16T12:18:45.750Z,100.00
2023-05-16T12:21:36.194Z,100.00
2023-05-16T12:24:30.354Z,100.00
2023-05-16T12:27:25.414Z,100.00
2023-05-16T12:30:12.254Z,99.90
2023-05-16T12:32:59.194Z,98.81
2023-05-16T12:35:47.337Z,99.80
2023-05-16T12:38:34.399Z,100.00
2023-05-16T12:41:22.507Z,99.36
2023-05-16T12:44:18.088Z,100.00
2023-05-16T12:47:11.623Z,100.00
2023-05-16T12:49:57.931Z,99.50
2023-05-16T12:52:49.632Z,98.79
2023-05-16T12:55:35.967Z,98.44
2023-05-16T12:58:22.892Z,98.63
2023-05-16T13:01:09.486Z,96.97
2023-05-16T13:03:56.068Z,98.14
2023-05-16T13:06:57.620Z,94.68
2023-05-16T13:09:45.864Z,95.15
2023-05-16T13:12:32.296Z,94.92
2023-05-16T13:15:19.041Z,95.62
2023-05-16T13:18:05.526Z,95.71
2023-05-16T13:20:53.001Z,90.85
2023-05-16T13:23:39.232Z,87.55
2023-05-16T13:26:26.541Z,85.98
2023-05-16T13:29:13.033Z,85.56
2023-05-16T13:31:59.294Z,83.87
2023-05-16T13:34:45.758Z,83.31
2023-05-16T13:37:32.116Z,83.85
2023-05-16T13:40:18.406Z,82.49
2023-05-16T13:43:05.606Z,80.55
2023-05-16T13:45:52.786Z,79.24
2023-05-16T13:48:39.391Z,78.34
2023-05-16T13:51:25.946Z,76.18
2023-05-16T13:54:12.491Z,74.64
2023-05-16T13:56:58.937Z,73.77
2023-05-16T14:00:11.352Z,74.22
2023-05-16T14:02:57.847Z,72.64
2023-05-16T14:05:44.786Z,69.69
2023-05-16T14:08:31.321Z,70.70
2023-05-16T14:11:19.770Z,69.41
2023-05-16T14:14:06.452Z,70.04
2023-05-16T14:16:52.788Z,69.26
2023-05-16T14:19:39.345Z,68.60
2023-05-16T14:22:26.000Z,72.38
2023-05-16T14:25:12.529Z,74.71
2023-05-16T14:27:59.328Z,76.10
2023-05-16T14:30:47.346Z,76.25
2023-05-16T14:33:34.341Z,77.29
2023-05-16T14:36:20.947Z,75.60
2023-05-16T14:39:08.432Z,73.91
2023-05-16T14:41:54.658Z,73.59
2023-05-16T14:44:40.871Z,71.47
2023-05-16T14:47:28.538Z,72.59
2023-05-16T14:50:14.955Z,69.95
2023-05-16T14:53:01.576Z,68.09
2023-05-16T14:55:48.767Z,69.79
2023-05-16T14:58:35.122Z,69.24
2023-05-16T15:01:22.322Z,71.21
2023-05-16T15:04:08.945Z,75.39
2023-05-16T15:06:55.900Z,73.86
2023-05-16T15:09:42.280Z,74.79
2023-05-16T15:12:28.885Z,74.59
2023-05-16T15:15:16.620Z,72.49
2023-05-16T15:18:03.092Z,73.78
2023-05-16T15:20:49.604Z,73.29
2023-05-16T15:23:36.515Z,73.96
2023-05-16T15:26:23.112Z,72.11
2023-05-16T15:29:09.636Z,68.18
2023-05-16T15:31:56.487Z,69.07
2023-05-16T15:34:42.676Z,69.23
2023-05-16T15:37:28.881Z,68.36
2023-05-16T15:40:15.658Z,68.84
2023-05-16T15:43:02.067Z,69.22
2023-05-16T15:45:48.383Z,68.58
2023-05-16T15:48:35.038Z,67.39
2023-05-16T15:51:21.527Z,68.94
2023-05-16T15:54:08.269Z,68.95
2023-05-16T15:56:54.853Z,65.98
2023-05-16T15:59:41.422Z,64.24
2023-05-16T16:02:27.686Z,64.78
2023-05-16T16:05:13.967Z,64.94
2023-05-16T16:08:00.426Z,63.00
2023-05-16T16:10:47.338Z,63.16
2023-05-16T16:13:34.122Z,62.77
2023-05-16T16:16:20.447Z,62.53
2023-05-16T16:19:08.094Z,63.65
2023-05-16T16:21:54.579Z,64.36
2023-05-16T16:24:40.800Z,62.62
2023-05-16T16:27:27.302Z,61.84
2023-05-16T16:30:13.957Z,63.48
2023-05-16T16:33:00.697Z,62.05
2023-05-16T16:35:47.530Z,63.98
2023-05-16T16:38:34.110Z,64.15
2023-05-16T16:41:20.757Z,60.13
2023-05-16T16:44:07.007Z,60.47
2023-05-16T16:46:53.358Z,59.28
2023-05-16T16:49:39.966Z,59.80
2023-05-16T16:52:26.186Z,58.04
2023-05-16T16:55:13.116Z,58.40
2023-05-16T16:57:59.405Z,56.92
2023-05-16T17:00:46.106Z,57.71
2023-05-16T17:03:32.780Z,58.70
2023-05-16T17:06:19.371Z,58.65
2023-05-16T17:09:06.963Z,58.99
2023-05-16T17:11:53.489Z,59.42
2023-05-16T17:14:39.827Z,60.20
2023-05-16T17:17:26.413Z,59.18
2023-05-16T17:20:13.200Z,59.79
2023-05-16T17:22:59.974Z,57.55
2023-05-16T17:25:46.525Z,58.82
2023-05-16T17:28:32.588Z,59.40
2023-05-16T17:31:19.334Z,59.84
2023-05-16T17:34:05.873Z,60.38
2023-05-16T17:36:52.309Z,59.26
2023-05-16T17:39:38.871Z,57.58
2023-05-16T17:42:25.679Z,59.22
2023-05-16T17:45:16.310Z,55.72
2023-05-16T17:48:03.033Z,55.00
2023-05-16T17:50:50.057Z,55.07
2023-05-16T17:53:37.527Z,54.12
2023-05-16T17:56:23.851Z,53.96
2023-05-16T17:59:10.682Z,51.52
2023-05-16T18:02:00.008Z,52.03
2023-05-16T18:04:47.132Z,51.82
2023-05-16T18:07:34.101Z,52.68
2023-05-16T18:10:20.897Z,51.97
2023-05-16T18:13:07.329Z,51.59
2023-05-16T18:15:53.829Z,51.79
2023-05-16T18:18:40.374Z,52.33
2023-05-16T18:21:27.580Z,50.92
2023-05-16T18:24:15.880Z,52.08
2023-05-16T18:27:03.186Z,52.51
2023-05-16T18:29:49.731Z,51.95
2023-05-16T18:32:36.577Z,53.37
2023-05-16T18:35:23.798Z,51.56
2023-05-16T18:38:20.089Z,52.17
2023-05-16T18:41:17.188Z,52.31
2023-05-16T18:44:03.749Z,51.77
2023-05-16T18:46:50.110Z,51.02
2023-05-16T18:49:39.322Z,51.41
2023-05-16T18:52:25.914Z,51.13
2023-05-16T18:55:13.532Z,51.18
2023-05-16T18:57:59.850Z,51.89
2023-05-16T19:00:46.800Z,51.95
2023-05-16T19:03:33.550Z,52.47
2023-05-16T19:06:20.234Z,52.05
2023-05-16T19:09:07.418Z,51.98
2023-05-16T19:11:53.913Z,52.11
2023-05-16T19:14:40.551Z,52.55
2023-05-16T19:17:27.210Z,53.17
2023-05-16T19:20:13.694Z,52.21
2023-05-16T19:23:00.915Z,52.36
2023-05-16T19:25:49.046Z,52.56
2023-05-16T19:28:35.342Z,53.66
2023-05-16T19:31:21.669Z,53.64
2023-05-16T19:34:08.324Z,53.55
2023-05-16T19:36:55.272Z,54.57
2023-05-16T19:39:41.444Z,54.15
2023-05-16T19:42:27.698Z,54.70
2023-05-16T19:45:14.188Z,53.76
2023-05-16T19:48:00.864Z,55.03
2023-05-16T19:50:47.369Z,55.45
2023-05-16T19:53:33.971Z,55.87
2023-05-16T19:56:23.147Z,56.39
2023-05-16T19:59:09.609Z,58.80
2023-05-16T20:01:56.011Z,59.07
2023-05-16T20:04:42.674Z,59.58
2023-05-16T20:07:29.145Z,65.03
2023-05-16T20:10:19.804Z,67.27
2023-05-16T20:13:07.502Z,70.56
2023-05-16T20:15:53.865Z,75.67
2023-05-16T20:18:40.160Z,76.69
2023-05-16T20:21:26.770Z,79.12
2023-05-16T20:24:14.288Z,68.94
2023-05-16T20:27:01.397Z,76.75
2023-05-16T20:29:54.601Z,79.85
2023-05-16T20:32:41.101Z,83.03
2023-05-16T20:35:27.644Z,86.97
2023-05-16T20:38:13.969Z,86.78
2023-05-16T20:41:00.516Z,89.33
2023-05-16T20:43:46.874Z,91.13
2023-05-16T20:46:33.528Z,93.85
2023-05-16T20:49:19.826Z,94.41
2023-05-16T20:52:06.770Z,95.50
2023-05-16T20:54:53.153Z,96.22
2023-05-16T20:57:41.701Z,97.71
2023-05-16T21:00:29.658Z,98.86
2023-05-16T21:03:16.452Z,99.93
2023-05-16T21:06:02.722Z,100.00
2023-05-16T21:08:48.965Z,100.00
2023-05-16T21:11:36.067Z,100.00
2023-05-16T21:14:22.882Z,100.00
2023-05-16T21:17:09.517Z,100.00
2023-05-16T21:19:55.996Z,100.00
2023-05-16T21:22:42.591Z,100.00
2023-05-16T21:25:29.317Z,100.00
2023-05-16T21:28:15.872Z,100.00
2023-05-16T21:31:02.436Z,100.00
2023-05-16T21:33:51.921Z,100.00
2023-05-16T21:36:38.518Z,100.00
2023-05-16T21:39:24.848Z,100.00
2023-05-16T21:42:11.387Z,100.00
2023-05-16T21:44:57.907Z,100.00
2023-05-16T21:47:44.617Z,100.00
2023-05-16T21:50:31.020Z,100.00
2023-05-16T21:53:18.990Z,100.00
2023-05-16T21:56:06.358Z,100.00
2023-05-16T21:58:53.024Z,99.38
2023-05-16T22:01:39.634Z,96.23
2023-05-16T22:04:26.978Z,97.94
2023-05-16T22:07:13.354Z,98.09
2023-05-16T22:09:59.729Z,89.07
2023-05-16T22:12:46.493Z,89.20
2023-05-16T22:15:32.753Z,88.62
2023-05-16T22:18:19.116Z,87.06
2023-05-16T22:21:06.195Z,87.48
2023-05-16T22:23:52.479Z,91.99
2023-05-16T22:26:38.931Z,90.56
2023-05-16T22:29:25.123Z,94.32
2023-05-16T22:32:11.709Z,99.65
2023-05-16T22:34:57.881Z,94.42
2023-05-16T22:37:44.410Z,91.49
2023-05-16T22:40:30.883Z,97.49
2023-05-16T22:43:17.545Z,97.81
2023-05-16T22:46:04.174Z,99.30
2023-05-16T22:48:50.836Z,96.20
2023-05-16T22:51:37.085Z,95.12
2023-05-16T22:54:23.497Z,90.81
2023-05-16T22:57:10.433Z,92.78
2023-05-16T22:59:57.036Z,96.99
2023-05-16T23:02:43.855Z,100.00
2023-05-16T23:05:30.547Z,100.00
2023-05-16T23:08:16.960Z,100.00
2023-05-16T23:11:03.560Z,100.00
2023-05-16T23:13:50.619Z,100.00
2023-05-16T23:16:36.890Z,100.00
2023-05-16T23:19:23.217Z,100.00
2023-05-16T23:22:09.531Z,100.00
2023-05-16T23:24:56.460Z,100.00
2023-05-16T23:27:43.214Z,100.00
2023-05-16T23:30:29.812Z,100.00
2023-05-16T23:33:16.389Z,100.00
2023-05-16T23:36:02.785Z,100.00
2023-05-16T23:38:48.988Z,100.00
2023-05-16T23:41:35.424Z,100.00
2023-05-16T23:44:22.116Z,100.00
2023-05-16T23:47:08.923Z,100.00
2023-05-16T23:49:55.408Z,100.00
2023-05-16T23:52:41.704Z,100.00
2023-05-16T23:55:28.444Z,100.00
2023-05-16T23:58:14.895Z,100.00
